Data for 05/29/2016

Time Sea-Level Adjusted Pressure Absolute Pressure Temperature Relative Humidity Dew Point   
(mb) (inHg) (mb) (inHg) (C) (F) (%) (C) (F)
00:05 1020 30.12 849 25.07 7.5 45.4 74 3.1 37.7
00:10 1020 30.12 849 25.07 7.6 45.6 73 3.1 37.5
00:15 1020 30.12 849 25.07 7.8 46 73 3.2 37.7
00:20 1020 30.12 849 25.07 7.8 46 71 2.9 37.3
00:25 1020 30.12 849 25.07 7.7 45.8 72 2.9 37.2
00:30 1020 30.12 849 25.07 7.6 45.7 72 2.9 37.3
00:35 1020 30.12 849 25.07 7.3 45.2 73 2.8 37.1
00:40 1020 30.12 849 25.07 7.3 45.1 73 2.7 36.9
00:45 1020 30.12 849 25.07 7 44.7 74 2.7 36.9
00:50 1020 30.12 849 25.07 7 44.5 74 2.6 36.8
00:55 1020 30.12 849 25.07 7.1 44.8 73 2.5 36.6
01:00 1020 30.12 849 25.07 7.2 44.9 74 2.8 37
01:05 1020 30.12 849 25.07 6.9 44.4 75 2.7 36.9
01:10 1020 30.12 849 25.07 6.8 44.2 75 2.6 36.7
01:15 1020 30.12 849 25.07 6.9 44.4 75 2.7 36.9
01:20 1020 30.12 849 25.07 6.8 44.2 76 2.8 37.1
01:25 1020 30.12 849 25.07 6.6 43.9 76 2.6 36.7
01:30 1020 30.12 849 25.07 6.7 44 76 2.8 37
01:35 1020 30.12 849 25.07 6.5 43.7 76 2.6 36.7
01:40 1020 30.12 849 25.07 6.6 43.9 74 2.4 36.4
01:45 1020 30.12 849 25.07 6.8 44.2 74 2.5 36.5
01:50 1020 30.12 849 25.07 6.8 44.2 73 2.4 36.3
01:55 1020 30.12 849 25.07 6.9 44.5 72 2.3 36.1
02:00 1020 30.12 849 25.07 7 44.6 73 2.6 36.6
02:05 1020 30.12 849 25.07 6.8 44.2 74 2.4 36.3
02:10 1020 30.12 849 25.07 6.8 44.2 74 2.4 36.4
02:15 1020 30.12 849 25.07 6.8 44.3 73 2.3 36.1
02:20 1020 30.12 849 25.07 6.9 44.3 73 2.4 36.3
02:25 1020 30.12 849 25.07 6.5 43.7 75 2.5 36.5
02:30 1020 30.12 849 25.07 6 42.8 77 2.4 36.2
02:35 1020 30.12 849 25.07 5.7 42.3 78 2.3 36.1
02:40 1020 30.12 849 25.07 5.6 42.2 78 2.1 35.7
02:45 1020 30.12 849 25.07 5.8 42.4 77 2 35.7
02:50 1020 30.12 849 25.07 5.8 42.5 76 1.9 35.5
02:55 1020 30.12 849 25.07 6 42.8 75 1.9 35.5
03:00 1020 30.12 849 25.07 6.1 43.1 74 1.8 35.3
03:05 1020 30.12 849 25.07 6.4 43.4 73 1.9 35.4
03:10 1020 30.12 849 25.07 6.5 43.7 72 1.9 35.4
03:15 1020 30.12 849 25.07 6.6 43.9 73 2.1 35.7
03:20 1020 30.12 849 25.07 6.8 44.2 72 2.1 35.9
03:25 1020 30.12 849 25.07 6.8 44.2 73 2.3 36.1
03:30 1020 30.12 849 25.07 6.6 44 73 2.1 35.8
03:35 1020 30.12 849 25.07 6.7 44 72 2 35.7
03:40 1020 30.12 849 25.07 6.6 43.9 73 2.1 35.8
03:45 1020 30.12 849 25.07 6.4 43.6 73 2 35.7
03:50 1020 30.12 849 25.07 6.4 43.5 75 2.2 36
03:55 1020 30.12 849 25.07 6.2 43.1 75 2.1 35.9
04:00 1020 30.12 849 25.07 5.9 42.7 76 2.1 35.7
04:05 1020 30.12 849 25.07 6.2 43.2 73 1.7 35.1
04:10 1020 30.12 849 25.07 6.5 43.7 72 1.7 35.1
04:15 1020 30.12 849 25.07 6.5 43.8 72 1.9 35.4
04:20 1020 30.12 849 25.07 6.3 43.4 73 1.8 35.3
04:25 1020 30.12 849 25.07 6.2 43.2 73 1.8 35.3
04:30 1020 30.12 849 25.07 6 42.9 75 2 35.6
04:35 1020 30.12 849 25.07 5.9 42.6 76 2.1 35.7
04:40 1020 30.12 849 25.07 5.7 42.2 76 1.8 35.2
04:45 1020 30.12 849 25.07 5.9 42.6 74 1.6 34.9
04:50 1020 30.12 850 25.1 6.2 43.2 73 1.8 35.2
04:55 1020 30.12 850 25.1 6.1 43.1 73 1.7 35.1
05:00 1020 30.12 850 25.1 6.1 43 75 1.9 35.5
05:05 1020 30.12 850 25.1 5.7 42.3 75 1.6 34.9
05:10 1021 30.15 850 25.1 5.6 42.1 74 1.4 34.5
05:15 1021 30.15 850 25.1 5.6 42.1 74 1.4 34.6
05:20 1021 30.15 850 25.1 5.6 42.1 75 1.5 34.7
05:25 1021 30.15 850 25.1 5.7 42.3 73 1.2 34.2
05:30 1021 30.15 850 25.1 5.9 42.5 73 1.5 34.6
05:35 1021 30.15 850 25.1 5.8 42.5 74 1.5 34.7
05:40 1021 30.15 850 25.1 6 42.7 73 1.5 34.7
05:45 1021 30.15 850 25.1 6 42.8 73 1.5 34.7
05:50 1021 30.15 850 25.1 6 42.8 74 1.6 34.9
05:55 1021 30.15 850 25.1 6.1 43 73 1.6 34.9
06:00 1021 30.15 850 25.1 6.4 43.5 72 1.7 35.1
06:05 1021 30.15 850 25.1 6.8 44.2 70 1.8 35.2
06:10 1021 30.15 850 25.1 7 44.7 70 1.9 35.4
06:15 1021 30.15 850 25.1 7.4 45.4 68 2 35.6
06:20 1021 30.15 850 25.1 7.9 46.2 65 1.7 35.1
06:25 1021 30.15 850 25.1 8 46.5 64 1.7 35
06:30 1021 30.15 850 25.1 8.6 47.5 65 2.4 36.4
06:35 1021 30.15 850 25.1 9.4 49 60 2.1 35.8
06:40 1021 30.15 850 25.1 9.5 49.1 59 1.9 35.4
06:45 1021 30.15 850 25.1 9.6 49.2 62 2.6 36.6
06:50 1021 30.15 850 25.1 10.1 50.2 60 2.7 36.8
06:55 1021 30.15 850 25.1 10.4 50.8 56 2 35.6
07:00 1021 30.15 850 25.1 10.4 50.6 55 1.6 34.9
07:05 1021 30.15 850 25.1 10.6 51.1 56 2.4 36.3
07:10 1021 30.15 850 25.1 10.7 51.2 55 2.1 35.7
07:15 1021 30.15 850 25.1 11.2 52.1 55 2.6 36.7
07:20 1021 30.15 850 25.1 11.3 52.3 54 2.4 36.3
07:25 1021 30.15 850 25.1 11.3 52.4 54 2.3 36.1
07:30 1021 30.15 850 25.1 11.8 53.2 52 2.4 36.3
07:35 1021 30.15 850 25.1 12.1 53.8 51 2.4 36.3
07:40 1021 30.15 850 25.1 12 53.6 52 2.6 36.7
07:45 1021 30.15 850 25.1 11.7 53 54 2.6 36.7
07:50 1021 30.15 850 25.1 11.5 52.7 51 1.8 35.2
07:55 1021 30.15 850 25.1 11.8 53.3 49 1.6 34.9
08:00 1021 30.15 850 25.1 12.3 54.1 49 2 35.7
08:05 1021 30.15 850 25.1 12.7 54.9 48 2 35.6
08:10 1021 30.15 850 25.1 13.2 55.7 47 2.3 36.1
08:15 1021 30.15 850 25.1 14 57.2 45 2.4 36.4
08:20 1021 30.15 850 25.1 13.7 56.6 47 2.7 36.8
08:25 1021 30.15 850 25.1 13.4 56.2 46 2.1 35.8
08:30 1021 30.15 850 25.1 13.9 56.9 43 1.6 34.9
08:35 1021 30.15 850 25.1 14.5 58.1 40 1.2 34.2
08:40 1021 30.15 850 25.1 14.3 57.7 43 2.1 35.8
08:45 1021 30.15 850 25.1 13.1 55.6 45 1.6 34.9
08:50 1021 30.15 850 25.1 13.3 56 44 1.5 34.7
08:55 1021 30.15 850 25.1 14.4 57.9 41 1.3 34.4
09:00 1020 30.12 850 25.1 14.9 58.9 41 1.7 35.1
09:05 1020 30.12 850 25.1 14.6 58.3 42 2 35.6
09:10 1020 30.12 850 25.1 14.2 57.6 44 2.1 35.7
09:15 1020 30.12 850 25.1 14.9 58.7 39 1.3 34.3
09:20 1020 30.12 850 25.1 15 59 42 2.2 36
09:25 1020 30.12 850 25.1 14.9 58.9 41 1.8 35.3
09:30 1020 30.12 850 25.1 15.5 59.9 41 2.2 36
09:35 1020 30.12 850 25.1 15.8 60.4 39 1.9 35.4
09:40 1020 30.12 849 25.07 15.4 59.6 41 2.4 36.3
09:45 1020 30.12 849 25.07 15.9 60.6 38 1.7 35.1
09:50 1020 30.12 849 25.07 16.2 61.1 38 2 35.6
09:55 1020 30.12 849 25.07 16.2 61.2 38 1.9 35.4
10:00 1020 30.12 849 25.07 15.7 60.3 38 1.7 35.1
10:05 1020 30.12 849 25.07 16.2 61.1 36 1 33.8
10:10 1020 30.12 849 25.07 16.7 62 34 1 33.9
10:15 1020 30.12 849 25.07 16 60.8 39 2.3 36.2
10:20 1020 30.12 849 25.07 16 60.9 38 1.8 35.3
10:25 1020 30.12 849 25.07 16.3 61.3 34 0.6 33.2
10:30 1020 30.12 849 25.07 17.2 62.9 34 1.1 34
10:35 1020 30.12 849 25.07 17.7 63.9 32 1.1 34
10:40 1020 30.12 849 25.07 17.8 64 31 0.4 32.7
10:45 1020 30.12 849 25.07 17.3 63.1 32 0.7 33.3
10:50 1020 30.12 849 25.07 17.7 63.8 31 0.4 32.8
10:55 1020 30.12 849 25.07 18.3 64.9 29 0.2 32.3
11:00 1020 30.12 849 25.07 18.2 64.8 32 1.3 34.3
11:05 1020 30.12 849 25.07 17.4 63.4 30 -0.3 31.5
11:10 1020 30.12 849 25.07 17.2 62.9 32 0.5 32.9
11:15 1020 30.12 849 25.07 17.3 63.2 31 0.2 32.4
11:20 1020 30.12 849 25.07 18.1 64.5 29 -0.2 31.6
11:25 1020 30.12 849 25.07 18.8 65.8 29 0.3 32.5
11:30 1020 30.12 849 25.07 19.3 66.7 27 0 32.1
11:35 1019 30.09 849 25.07 19.1 66.4 26 -0.5 31
11:40 1019 30.09 849 25.07 18.4 65.1 28 -0.3 31.5
11:45 1019 30.09 849 25.07 18.4 65 29 -0.1 31.9
11:50 1019 30.09 849 25.07 18.6 65.5 28 -0.2 31.7
11:55 1019 30.09 848 25.04 18.6 65.5 27 -0.5 31.1
12:00 1019 30.09 848 25.04 19 66.3 26 -0.9 30.3
12:05 1019 30.09 848 25.04 19.3 66.7 26 -0.6 31
12:10 1019 30.09 848 25.04 19.4 66.9 26 -0.4 31.4
12:15 1019 30.09 848 25.04 19.2 66.6 27 -0.1 31.8
12:20 1019 30.09 848 25.04 19.1 66.5 26 -0.8 30.6
12:25 1019 30.09 848 25.04 19.8 67.6 26 -0.4 31.3
12:30 1019 30.09 848 25.04 20 67.9 25 -0.4 31.2
12:35 1019 30.09 848 25.04 19.7 67.4 25 -0.9 30.4
12:40 1019 30.09 848 25.04 19.9 67.9 26 0.1 32.2
12:45 1019 30.09 848 25.04 20.3 68.6 26 0.1 32.2
12:50 1019 30.09 848 25.04 20.5 69 25 -0.2 31.6
12:55 1019 30.09 848 25.04 20 68 25 -0.6 30.9
13:00 1019 30.09 848 25.04 19.9 67.7 26 -0 31.9
13:05 1019 30.09 848 25.04 18.6 65.4 28 -0.1 31.9
13:10 1019 30.09 848 25.04 18.8 65.8 27 -0.7 30.8
13:15 1019 30.09 848 25.04 19.3 66.8 27 0.1 32.1
13:20 1019 30.09 848 25.04 20.1 68.1 26 -0.1 31.9
13:25 1019 30.09 848 25.04 20.6 69.1 25 -0.2 31.7
13:30 1019 30.09 848 25.04 21.5 70.7 23 -0.6 30.9
13:35 1019 30.09 848 25.04 20.7 69.3 25 0 32
13:40 1019 30.09 848 25.04 20 68 25 -0.2 31.6
13:45 1018 30.06 848 25.04 19.3 66.7 27 -0 31.9
13:50 1018 30.06 848 25.04 19.8 67.7 26 0.1 32.2
13:55 1018 30.06 848 25.04 20.8 69.4 25 0.3 32.5
14:00 1018 30.06 848 25.04 20.3 68.5 26 0.3 32.5
14:05 1018 30.06 848 25.04 20.6 69.1 24 -0.5 31.1
14:10 1018 30.06 847 25.01 21.6 70.8 24 0.3 32.6
14:15 1018 30.06 847 25.01 21.5 70.7 23 -0.4 31.3
14:20 1018 30.06 847 25.01 21.3 70.4 23 -0.3 31.5
14:25 1018 30.06 847 25.01 20.5 69 25 0 32
14:30 1018 30.06 847 25.01 20.7 69.3 24 -0.7 30.7
14:35 1018 30.06 847 25.01 21.5 70.7 22 -1 30.2
14:40 1018 30.06 847 25.01 21.4 70.5 21 -1.4 29.5
14:45 1018 30.06 847 25.01 21.2 70.2 22 -1.2 29.9
14:50 1018 30.06 847 25.01 21.4 70.6 22 -1.1 30.1
14:55 1018 30.06 847 25.01 21.4 70.6 22 -1 30.2
15:00 1018 30.06 847 25.01 21.7 71 21 -1.6 29
15:05 1018 30.06 847 25.01 21.3 70.4 21 -1.8 28.8
15:10 1018 30.06 847 25.01 21.2 70.1 22 -1.4 29.5
15:15 1018 30.06 847 25.01 21 69.7 21 -1.8 28.7
15:20 1018 30.06 847 25.01 21.3 70.4 21 -1.4 29.4
15:25 1018 30.06 847 25.01 21.1 69.9 22 -1.3 29.7
15:30 1017 30.03 847 25.01 21.1 69.9 23 -0.6 31
15:35 1017 30.03 847 25.01 20.9 69.5 23 -0.7 30.7
15:40 1017 30.03 847 25.01 20.4 68.7 23 -1.1 30.1
15:45 1017 30.03 847 25.01 21.1 70 22 -1.3 29.6
15:50 1017 30.03 846 24.98 21.6 70.9 20 -1.9 28.5
15:55 1017 30.03 846 24.98 21.8 71.3 20 -2 28.4
16:00 1017 30.03 846 24.98 21.4 70.5 23 -0.7 30.8
16:05 1017 30.03 846 24.98 20.2 68.4 24 -1.1 30.1
16:10 1017 30.03 846 24.98 19.9 67.8 24 -1.3 29.7
16:15 1017 30.03 846 24.98 20.2 68.3 23 -1.5 29.4
16:20 1017 30.03 846 24.98 20.6 69 23 -1 30.1
16:25 1017 30.03 846 24.98 20.8 69.4 23 -0.8 30.6
16:30 1017 30.03 846 24.98 20.7 69.3 24 -0.7 30.7
16:35 1017 30.03 846 24.98 20.8 69.4 23 -1.2 29.9
16:40 1017 30.03 846 24.98 20.7 69.3 22 -1.5 29.3
16:45 1017 30.03 846 24.98 20.2 68.3 24 -1.1 30.1
16:50 1017 30.03 846 24.98 20 67.9 23 -1.6 29.2
16:55 1017 30.03 846 24.98 19.6 67.2 24 -1.4 29.5
17:00 1017 30.03 846 24.98 19.5 67.2 25 -1.1 30
17:05 1017 30.03 846 24.98 19.3 66.8 24 -1.5 29.3
17:10 1017 30.03 846 24.98 19.4 66.9 24 -1.7 28.9
17:15 1017 30.03 846 24.98 19.9 67.9 23 -1.7 29
17:20 1017 30.03 846 24.98 20.1 68.2 23 -1.4 29.4
17:25 1017 30.03 846 24.98 20.1 68.2 24 -1.2 29.9
17:30 1017 30.03 846 24.98 19.9 67.9 23 -1.4 29.5
17:35 1017 30.03 846 24.98 19.6 67.2 25 -0.8 30.6
17:40 1017 30.03 846 24.98 19.5 67 24 -1.2 29.8
17:45 1017 30.03 846 24.98 19.5 67 25 -1.1 30.1
17:50 1017 30.03 846 24.98 19.6 67.2 25 -1 30.3
17:55 1017 30.03 846 24.98 19.6 67.2 25 -0.7 30.8
18:00 1017 30.03 846 24.98 19.4 67 26 -0.7 30.8
18:05 1017 30.03 846 24.98 19.3 66.7 26 -0.7 30.8
18:10 1017 30.03 846 24.98 19.1 66.5 26 -0.5 31.1
18:15 1017 30.03 846 24.98 18.9 66 26 -0.7 30.8
18:20 1017 30.03 846 24.98 18.9 66 27 -0.2 31.7
18:25 1017 30.03 846 24.98 18.7 65.7 29 0.7 33.2
18:30 1017 30.03 846 24.98 18.8 65.8 30 1 33.8
18:35 1017 30.03 846 24.98 18.6 65.4 31 1.4 34.6
18:40 1017 30.03 846 24.98 18.5 65.3 31 1.4 34.4
18:45 1016 30 846 24.98 18.4 65.2 31 1.3 34.3
18:50 1017 30.03 846 24.98 18.4 65.1 31 0.9 33.7
18:55 1017 30.03 846 24.98 18.4 65 30 0.8 33.5
19:00 1016 30 846 24.98 18.4 65.1 31 1.2 34.1
19:05 1016 30 846 24.98 18.4 65.1 31 1.3 34.4
19:10 1016 30 846 24.98 18.4 65.1 32 1.6 34.8
19:15 1016 30 846 24.98 18.4 65 32 1.4 34.6
19:20 1016 30 846 24.98 18.2 64.8 34 2.1 35.7
19:25 1016 30 846 24.98 18 64.4 37 3.4 38.1
19:30 1016 30 846 24.98 17.9 64.2 39 4 39.2
19:35 1017 30.03 846 24.98 17.9 64.2 39 4 39.2
19:40 1017 30.03 846 24.98 17.7 63.9 40 4 39.3
19:45 1017 30.03 846 24.98 17.5 63.4 41 4.3 39.8
19:50 1017 30.03 846 24.98 17.1 62.7 43 4.4 39.9
19:55 1017 30.03 846 24.98 16.8 62.2 43 4.3 39.8
20:00 1017 30.03 846 24.98 16.6 61.8 44 4.5 40.1
20:05 1017 30.03 846 24.98 16.4 61.6 44 4.4 39.9
20:10 1017 30.03 846 24.98 16.4 61.5 42 3.4 38.2
20:15 1017 30.03 846 24.98 16.3 61.4 39 2.3 36.1
20:20 1017 30.03 846 24.98 16.3 61.4 38 2.2 36
20:25 1017 30.03 846 24.98 16 60.9 39 2.1 35.7
20:30 1017 30.03 846 24.98 15.8 60.5 38 1.5 34.7
20:35 1017 30.03 846 24.98 16 60.7 36 0.8 33.5
20:40 1017 30.03 846 24.98 16.2 61.1 34 0.3 32.5
20:45 1017 30.03 846 24.98 16.3 61.3 31 -0.6 30.9
20:50 1017 30.03 846 24.98 16.3 61.4 32 -0.3 31.4
20:55 1017 30.03 846 24.98 16.4 61.4 32 -0.5 31.2
21:00 1017 30.03 846 24.98 16.3 61.4 31 -0.7 30.8
21:05 1017 30.03 846 24.98 16.4 61.6 28 -2.1 28.3
21:10 1017 30.03 846 24.98 17.1 62.8 27 -2 28.4
21:15 1017 30.03 846 24.98 16.9 62.5 30 -0.8 30.5
21:20 1017 30.03 846 24.98 16.5 61.6 31 -0.5 31.1
21:25 1017 30.03 846 24.98 16.2 61.1 33 -0.2 31.7
21:30 1017 30.03 846 24.98 16 60.7 33 -0.2 31.6
21:35 1017 30.03 846 24.98 15.8 60.4 34 -0 31.9
21:40 1017 30.03 846 24.98 15.6 60.1 35 0.3 32.5
21:45 1017 30.03 846 24.98 15.6 60 35 0.2 32.4
21:50 1017 30.03 846 24.98 15.6 60.1 34 -0.1 31.8
21:55 1017 30.03 846 24.98 15.7 60.3 34 -0.1 31.8
22:00 1017 30.03 847 25.01 15.7 60.2 35 0.3 32.6
22:05 1018 30.06 847 25.01 15.5 59.9 36 0.5 32.8
22:10 1018 30.06 847 25.01 15.4 59.7 38 1.2 34.1
22:15 1018 30.06 847 25.01 15.1 59.3 39 1.3 34.3
22:20 1018 30.06 847 25.01 15 59 39 1.4 34.5
22:25 1018 30.06 847 25.01 14.9 58.9 39 1.1 34
22:30 1017 30.03 847 25.01 15 59.1 39 1.2 34.2
22:35 1017 30.03 847 25.01 15.1 59.2 34 -0.4 31.2
22:40 1017 30.03 847 25.01 16 60.8 31 -0.8 30.5
22:45 1017 30.03 847 25.01 16.2 61.2 32 -0.4 31.3
22:50 1018 30.06 847 25.01 15.8 60.5 36 1.1 33.9
22:55 1018 30.06 847 25.01 15.1 59.2 41 2 35.5
23:00 1018 30.06 847 25.01 14.6 58.3 39 0.9 33.6
23:05 1018 30.06 847 25.01 14.7 58.5 39 0.9 33.6
23:10 1018 30.06 847 25.01 14.6 58.2 41 1.7 35.1
23:15 1018 30.06 847 25.01 14.2 57.6 43 1.9 35.4
23:20 1018 30.06 847 25.01 14 57.2 44 2 35.6
23:25 1018 30.06 847 25.01 13.8 56.8 44 1.8 35.3
23:30 1018 30.06 847 25.01 13.7 56.7 45 1.9 35.4
23:35 1018 30.06 847 25.01 13.6 56.5 44 1.7 35.1
23:40 1018 30.06 847 25.01 13.6 56.4 45 1.9 35.5
23:45 1018 30.06 847 25.01 13.4 56.2 46 2.1 35.7
23:50 1018 30.06 847 25.01 13.2 55.8 47 2.3 36.1
23:55 1018 30.06 847 25.01 13.2 55.7 47 2.3 36.1
24:00 1018 30.06 847 25.01 13.1 55.5 48 2.5 36.5